sensor_id;sensor_type;location;lat;lon;timestamp;pressure;altitude;pressure_sealevel;temperature;humidity
11523;BME280;40093;43.224;27.910;2022-11-20T00:01:57;100165.50;;;18.98;100.00
11523;BME280;40093;43.224;27.910;2022-11-20T00:04:24;100147.53;;;18.99;100.00
11523;BME280;40093;43.224;27.910;2022-11-20T00:06:52;100150.75;;;18.85;100.00
11523;BME280;40093;43.224;27.910;2022-11-20T00:09:19;100142.72;;;18.87;100.00
11523;BME280;40093;43.224;27.910;2022-11-20T00:11:46;100134.00;;;18.85;100.00
11523;BME280;40093;43.224;27.910;2022-11-20T00:14:13;100135.28;;;18.96;100.00
11523;BME280;40093;43.224;27.910;2022-11-20T00:16:42;100144.22;;;19.04;100.00
11523;BME280;40093;43.224;27.910;2022-11-20T00:19:09;100103.84;;;18.67;100.00
11523;BME280;40093;43.224;27.910;2022-11-20T00:21:36;100102.31;;;18.79;100.00
11523;BME280;40093;43.224;27.910;2022-11-20T00:24:08;100143.34;;;19.07;100.00
11523;BME280;40093;43.224;27.910;2022-11-20T00:26:36;100117.44;;;18.94;100.00
11523;BME280;40093;43.224;27.910;2022-11-20T00:29:03;100140.22;;;19.05;100.00
11523;BME280;40093;43.224;27.910;2022-11-20T00:31:31;100132.63;;;19.05;100.00
11523;BME280;40093;43.224;27.910;2022-11-20T00:33:58;100142.56;;;19.06;100.00
11523;BME280;40093;43.224;27.910;2022-11-20T00:36:27;100125.78;;;18.94;100.00
11523;BME280;40093;43.224;27.910;2022-11-20T00:38:56;100142.22;;;19.04;100.00
11523;BME280;40093;43.224;27.910;2022-11-20T00:41:27;100138.75;;;19.00;100.00
11523;BME280;40093;43.224;27.910;2022-11-20T00:43:55;100126.88;;;18.84;100.00
11523;BME280;40093;43.224;27.910;2022-11-20T00:46:25;100162.72;;;18.98;100.00
11523;BME280;40093;43.224;27.910;2022-11-20T00:48:52;100156.91;;;18.92;100.00
11523;BME280;40093;43.224;27.910;2022-11-20T00:51:21;100154.56;;;18.91;100.00
11523;BME280;40093;43.224;27.910;2022-11-20T00:53:49;100146.28;;;18.87;100.00
11523;BME280;40093;43.224;27.910;2022-11-20T00:56:17;100141.94;;;18.86;100.00
11523;BME280;40093;43.224;27.910;2022-11-20T00:58:47;100106.72;;;18.64;100.00
11523;BME280;40093;43.224;27.910;2022-11-20T01:01:16;100143.19;;;18.69;100.00
11523;BME280;40093;43.224;27.910;2022-11-20T01:03:45;100151.63;;;18.82;100.00
11523;BME280;40093;43.224;27.910;2022-11-20T01:06:14;100160.84;;;18.79;100.00
11523;BME280;40093;43.224;27.910;2022-11-20T01:08:43;100150.25;;;18.74;100.00
11523;BME280;40093;43.224;27.910;2022-11-20T01:11:12;100066.22;;;18.31;100.00
11523;BME280;40093;43.224;27.910;2022-11-20T01:13:43;100146.06;;;18.82;100.00
11523;BME280;40093;43.224;27.910;2022-11-20T01:16:19;100073.69;;;18.34;100.00
11523;BME280;40093;43.224;27.910;2022-11-20T01:19:02;100073.56;;;18.53;100.00
11523;BME280;40093;43.224;27.910;2022-11-20T01:21:33;100108.59;;;18.83;100.00
11523;BME280;40093;43.224;27.910;2022-11-20T01:24:01;100135.66;;;19.11;100.00
11523;BME280;40093;43.224;27.910;2022-11-20T01:26:30;100145.06;;;19.17;100.00
11523;BME280;40093;43.224;27.910;2022-11-20T01:28:58;100149.97;;;19.13;100.00
11523;BME280;40093;43.224;27.910;2022-11-20T01:31:28;100137.91;;;19.16;100.00
11523;BME280;40093;43.224;27.910;2022-11-20T01:33:58;100132.31;;;19.16;100.00
11523;BME280;40093;43.224;27.910;2022-11-20T01:36:36;100091.56;;;18.65;100.00
11523;BME280;40093;43.224;27.910;2022-11-20T01:39:05;100170.44;;;19.22;100.00
11523;BME280;40093;43.224;27.910;2022-11-20T01:41:36;100142.44;;;19.26;100.00
11523;BME280;40093;43.224;27.910;2022-11-20T01:44:47;100132.84;;;19.27;100.00
11523;BME280;40093;43.224;27.910;2022-11-20T01:47:21;100134.81;;;19.26;100.00
11523;BME280;40093;43.224;27.910;2022-11-20T01:49:53;100129.38;;;19.35;100.00
11523;BME280;40093;43.224;27.910;2022-11-20T01:52:27;100122.13;;;19.38;100.00
11523;BME280;40093;43.224;27.910;2022-11-20T01:55:00;100114.53;;;19.26;100.00
11523;BME280;40093;43.224;27.910;2022-11-20T01:57:31;100092.00;;;19.04;100.00
11523;BME280;40093;43.224;27.910;2022-11-20T02:00:04;100140.66;;;19.32;100.00
11523;BME280;40093;43.224;27.910;2022-11-20T02:06:11;100144.72;;;19.15;100.00
11523;BME280;40093;43.224;27.910;2022-11-20T02:08:40;100127.81;;;19.22;100.00
11523;BME280;40093;43.224;27.910;2022-11-20T02:11:08;100126.91;;;19.25;100.00
11523;BME280;40093;43.224;27.910;2022-11-20T02:13:35;100120.78;;;19.30;100.00
11523;BME280;40093;43.224;27.910;2022-11-20T02:16:14;100120.69;;;19.33;100.00
11523;BME280;40093;43.224;27.910;2022-11-20T02:18:42;100119.03;;;19.36;100.00
11523;BME280;40093;43.224;27.910;2022-11-20T02:21:25;100126.25;;;19.33;100.00
11523;BME280;40093;43.224;27.910;2022-11-20T02:24:10;100071.16;;;19.09;100.00
11523;BME280;40093;43.224;27.910;2022-11-20T02:26:42;100098.13;;;19.28;100.00
11523;BME280;40093;43.224;27.910;2022-11-20T02:29:13;100101.38;;;19.39;100.00
11523;BME280;40093;43.224;27.910;2022-11-20T02:31:42;100119.72;;;19.52;100.00
11523;BME280;40093;43.224;27.910;2022-11-20T02:34:10;100114.66;;;19.47;100.00
11523;BME280;40093;43.224;27.910;2022-11-20T02:36:39;100124.59;;;19.36;100.00
11523;BME280;40093;43.224;27.910;2022-11-20T02:39:11;100112.63;;;19.35;100.00
11523;BME280;40093;43.224;27.910;2022-11-20T02:41:42;100103.28;;;19.42;100.00
11523;BME280;40093;43.224;27.910;2022-11-20T02:44:09;100117.91;;;19.46;100.00
11523;BME280;40093;43.224;27.910;2022-11-20T02:46:36;100116.78;;;19.43;100.00
11523;BME280;40093;43.224;27.910;2022-11-20T02:49:05;100111.53;;;19.45;100.00
11523;BME280;40093;43.224;27.910;2022-11-20T02:51:32;100088.66;;;19.38;100.00
11523;BME280;40093;43.224;27.910;2022-11-20T02:53:59;100076.59;;;19.41;100.00
11523;BME280;40093;43.224;27.910;2022-11-20T02:56:28;100086.44;;;19.33;100.00
11523;BME280;40093;43.224;27.910;2022-11-20T02:58:55;100094.91;;;19.42;100.00
11523;BME280;40093;43.224;27.910;2022-11-20T03:01:22;100054.94;;;18.91;100.00
11523;BME280;40093;43.224;27.910;2022-11-20T03:03:49;100105.59;;;19.31;100.00
11523;BME280;40093;43.224;27.910;2022-11-20T03:06:19;100111.09;;;19.34;100.00
11523;BME280;40093;43.224;27.910;2022-11-20T03:08:48;100092.88;;;19.30;100.00
11523;BME280;40093;43.224;27.910;2022-11-20T03:11:15;100094.66;;;19.24;100.00
11523;BME280;40093;43.224;27.910;2022-11-20T03:13:43;100090.41;;;19.19;100.00
11523;BME280;40093;43.224;27.910;2022-11-20T03:16:12;100089.97;;;19.21;100.00
11523;BME280;40093;43.224;27.910;2022-11-20T03:18:41;100086.84;;;19.19;100.00
11523;BME280;40093;43.224;27.910;2022-11-20T03:21:09;100042.34;;;18.87;100.00
11523;BME280;40093;43.224;27.910;2022-11-20T03:23:37;100037.38;;;18.66;100.00
11523;BME280;40093;43.224;27.910;2022-11-20T03:26:09;100076.97;;;19.02;100.00
11523;BME280;40093;43.224;27.910;2022-11-20T03:28:37;100074.84;;;19.06;100.00
11523;BME280;40093;43.224;27.910;2022-11-20T03:31:10;100078.97;;;19.01;100.00
11523;BME280;40093;43.224;27.910;2022-11-20T03:33:38;100075.03;;;18.99;100.00
11523;BME280;40093;43.224;27.910;2022-11-20T03:36:07;100072.38;;;18.95;100.00
11523;BME280;40093;43.224;27.910;2022-11-20T03:38:34;100080.09;;;19.04;100.00
11523;BME280;40093;43.224;27.910;2022-11-20T03:41:03;100073.94;;;19.09;100.00
11523;BME280;40093;43.224;27.910;2022-11-20T03:43:31;100078.31;;;19.10;100.00
11523;BME280;40093;43.224;27.910;2022-11-20T03:45:59;100075.09;;;19.11;100.00
11523;BME280;40093;43.224;27.910;2022-11-20T03:48:28;100079.69;;;19.18;100.00
11523;BME280;40093;43.224;27.910;2022-11-20T03:51:07;100072.63;;;19.13;100.00
11523;BME280;40093;43.224;27.910;2022-11-20T03:53:34;100072.94;;;19.03;100.00
11523;BME280;40093;43.224;27.910;2022-11-20T03:56:01;100055.44;;;19.02;100.00
11523;BME280;40093;43.224;27.910;2022-11-20T03:58:28;100084.78;;;19.07;100.00
11523;BME280;40093;43.224;27.910;2022-11-20T04:00:55;100072.72;;;19.10;100.00
11523;BME280;40093;43.224;27.910;2022-11-20T04:03:23;100069.59;;;19.08;100.00
11523;BME280;40093;43.224;27.910;2022-11-20T04:05:52;100047.06;;;18.90;100.00
11523;BME280;40093;43.224;27.910;2022-11-20T04:08:21;100059.41;;;18.89;100.00
11523;BME280;40093;43.224;27.910;2022-11-20T04:10:48;100047.91;;;18.87;100.00
11523;BME280;40093;43.224;27.910;2022-11-20T04:13:15;100051.84;;;18.89;100.00
11523;BME280;40093;43.224;27.910;2022-11-20T04:15:41;100058.63;;;18.88;100.00
11523;BME280;40093;43.224;27.910;2022-11-20T04:18:09;100042.34;;;18.87;100.00
11523;BME280;40093;43.224;27.910;2022-11-20T04:20:36;100034.22;;;18.92;100.00
11523;BME280;40093;43.224;27.910;2022-11-20T04:23:05;100042.47;;;18.96;100.00
11523;BME280;40093;43.224;27.910;2022-11-20T04:25:32;100032.22;;;18.93;100.00
11523;BME280;40093;43.224;27.910;2022-11-20T04:28:00;100011.66;;;18.87;100.00
11523;BME280;40093;43.224;27.910;2022-11-20T04:37:32;99983.19;;;18.67;100.00
11523;BME280;40093;43.224;27.910;2022-11-20T04:40:01;100042.72;;;19.01;100.00
11523;BME280;40093;43.224;27.910;2022-11-20T04:42:28;100038.47;;;18.97;100.00
11523;BME280;40093;43.224;27.910;2022-11-20T04:44:55;100030.56;;;19.08;100.00
11523;BME280;40093;43.224;27.910;2022-11-20T04:47:23;100039.72;;;19.08;100.00
11523;BME280;40093;43.224;27.910;2022-11-20T04:49:50;100062.47;;;19.07;100.00
11523;BME280;40093;43.224;27.910;2022-11-20T04:52:18;100032.13;;;19.09;100.00
11523;BME280;40093;43.224;27.910;2022-11-20T04:54:46;100023.41;;;19.07;100.00
11523;BME280;40093;43.224;27.910;2022-11-20T04:57:15;100042.75;;;19.14;100.00
11523;BME280;40093;43.224;27.910;2022-11-20T04:59:43;100050.97;;;19.05;100.00
11523;BME280;40093;43.224;27.910;2022-11-20T05:02:10;100064.59;;;19.15;100.00
11523;BME280;40093;43.224;27.910;2022-11-20T05:04:37;100049.44;;;19.16;100.00
11523;BME280;40093;43.224;27.910;2022-11-20T05:07:04;100038.66;;;19.18;100.00
11523;BME280;40093;43.224;27.910;2022-11-20T05:09:31;100035.63;;;19.25;100.00
11523;BME280;40093;43.224;27.910;2022-11-20T05:11:59;100036.94;;;19.21;100.00
11523;BME280;40093;43.224;27.910;2022-11-20T05:14:28;100027.66;;;19.11;100.00
11523;BME280;40093;43.224;27.910;2022-11-20T05:16:57;100034.03;;;19.12;100.00
11523;BME280;40093;43.224;27.910;2022-11-20T05:19:24;100021.97;;;19.15;100.00
11523;BME280;40093;43.224;27.910;2022-11-20T05:21:51;100031.91;;;19.16;100.00
11523;BME280;40093;43.224;27.910;2022-11-20T05:24:18;100046.56;;;19.20;100.00
11523;BME280;40093;43.224;27.910;2022-11-20T05:26:45;100017.38;;;18.96;100.00
11523;BME280;40093;43.224;27.910;2022-11-20T05:29:12;100041.66;;;19.24;100.00
11523;BME280;40093;43.224;27.910;2022-11-20T05:31:41;100044.63;;;19.17;100.00
11523;BME280;40093;43.224;27.910;2022-11-20T05:34:09;100059.63;;;19.23;100.00
11523;BME280;40093;43.224;27.910;2022-11-20T05:36:36;100054.91;;;19.20;100.00
11523;BME280;40093;43.224;27.910;2022-11-20T05:39:03;100056.84;;;19.23;100.00
11523;BME280;40093;43.224;27.910;2022-11-20T05:41:30;100073.81;;;19.28;100.00
11523;BME280;40093;43.224;27.910;2022-11-20T05:43:57;100072.13;;;19.31;100.00
11523;BME280;40093;43.224;27.910;2022-11-20T05:46:24;100074.81;;;19.34;100.00
11523;BME280;40093;43.224;27.910;2022-11-20T05:48:53;100066.66;;;19.27;100.00
11523;BME280;40093;43.224;27.910;2022-11-20T05:51:20;100084.63;;;19.39;100.00
11523;BME280;40093;43.224;27.910;2022-11-20T05:53:47;100051.69;;;19.21;100.00
11523;BME280;40093;43.224;27.910;2022-11-20T05:56:16;100081.31;;;19.44;100.00
11523;BME280;40093;43.224;27.910;2022-11-20T05:58:44;100050.59;;;19.31;100.00
11523;BME280;40093;43.224;27.910;2022-11-20T06:01:13;100063.44;;;19.41;100.00
11523;BME280;40093;43.224;27.910;2022-11-20T06:03:43;100074.03;;;19.46;100.00
11523;BME280;40093;43.224;27.910;2022-11-20T06:06:14;100077.72;;;19.43;100.00
11523;BME280;40093;43.224;27.910;2022-11-20T06:08:42;100069.56;;;19.49;100.00
11523;BME280;40093;43.224;27.910;2022-11-20T06:11:11;100077.63;;;19.59;100.00
11523;BME280;40093;43.224;27.910;2022-11-20T06:13:40;100074.63;;;19.54;100.00
11523;BME280;40093;43.224;27.910;2022-11-20T06:19:33;100072.81;;;19.60;100.00
11523;BME280;40093;43.224;27.910;2022-11-20T06:22:01;100082.53;;;19.68;100.00
11523;BME280;40093;43.224;27.910;2022-11-20T06:24:28;100083.31;;;19.68;100.00
11523;BME280;40093;43.224;27.910;2022-11-20T06:26:55;100082.22;;;19.66;100.00
11523;BME280;40093;43.224;27.910;2022-11-20T06:29:22;100082.41;;;19.59;100.00
11523;BME280;40093;43.224;27.910;2022-11-20T06:31:49;100088.56;;;19.66;100.00
11523;BME280;40093;43.224;27.910;2022-11-20T06:34:16;100088.34;;;19.73;100.00
11523;BME280;40093;43.224;27.910;2022-11-20T06:36:43;100078.38;;;19.85;100.00
11523;BME280;40093;43.224;27.910;2022-11-20T06:39:11;100083.75;;;19.92;100.00
11523;BME280;40093;43.224;27.910;2022-11-20T06:41:38;100080.50;;;20.06;100.00
11523;BME280;40093;43.224;27.910;2022-11-20T06:44:07;100078.13;;;20.17;100.00
11523;BME280;40093;43.224;27.910;2022-11-20T06:46:33;100093.09;;;20.23;100.00
11523;BME280;40093;43.224;27.910;2022-11-20T06:49:00;100087.94;;;20.33;100.00
11523;BME280;40093;43.224;27.910;2022-11-20T06:51:27;100091.16;;;20.32;100.00
11523;BME280;40093;43.224;27.910;2022-11-20T06:53:54;100081.09;;;20.34;100.00
11523;BME280;40093;43.224;27.910;2022-11-20T06:56:22;100091.97;;;20.33;100.00
11523;BME280;40093;43.224;27.910;2022-11-20T06:58:49;100087.03;;;20.36;100.00
11523;BME280;40093;43.224;27.910;2022-11-20T07:01:16;100085.09;;;20.46;100.00
11523;BME280;40093;43.224;27.910;2022-11-20T07:03:44;100087.44;;;20.47;100.00
11523;BME280;40093;43.224;27.910;2022-11-20T07:06:10;100092.81;;;20.42;100.00
11523;BME280;40093;43.224;27.910;2022-11-20T07:08:38;100083.13;;;20.34;100.00
11523;BME280;40093;43.224;27.910;2022-11-20T07:11:07;100091.38;;;20.37;100.00
11523;BME280;40093;43.224;27.910;2022-11-20T07:13:35;100094.84;;;20.41;100.00
11523;BME280;40093;43.224;27.910;2022-11-20T07:16:04;100082.50;;;20.51;100.00
11523;BME280;40093;43.224;27.910;2022-11-20T07:18:33;100085.97;;;20.55;100.00
11523;BME280;40093;43.224;27.910;2022-11-20T07:21:01;100088.75;;;20.55;100.00
11523;BME280;40093;43.224;27.910;2022-11-20T07:23:28;100080.97;;;20.50;100.00
11523;BME280;40093;43.224;27.910;2022-11-20T07:25:54;100086.06;;;20.52;100.00
11523;BME280;40093;43.224;27.910;2022-11-20T07:28:21;100104.09;;;20.51;100.00
11523;BME280;40093;43.224;27.910;2022-11-20T07:30:52;100088.09;;;20.51;100.00
11523;BME280;40093;43.224;27.910;2022-11-20T07:33:21;100080.56;;;20.39;100.00
11523;BME280;40093;43.224;27.910;2022-11-20T07:35:48;100073.63;;;20.32;100.00
11523;BME280;40093;43.224;27.910;2022-11-20T07:38:15;100087.03;;;20.36;100.00
11523;BME280;40093;43.224;27.910;2022-11-20T07:40:41;100091.97;;;20.33;100.00
11523;BME280;40093;43.224;27.910;2022-11-20T07:43:08;100081.31;;;20.40;100.00
11523;BME280;40093;43.224;27.910;2022-11-20T07:45:35;100082.63;;;20.48;100.00
11523;BME280;40093;43.224;27.910;2022-11-20T07:48:04;100080.16;;;20.50;100.00
11523;BME280;40093;43.224;27.910;2022-11-20T07:50:31;100087.72;;;20.62;100.00
11523;BME280;40093;43.224;27.910;2022-11-20T07:53:02;100079.81;;;20.60;100.00
11523;BME280;40093;43.224;27.910;2022-11-20T07:55:29;100086.38;;;20.66;100.00
11523;BME280;40093;43.224;27.910;2022-11-20T07:57:56;100070.81;;;20.65;100.00
11523;BME280;40093;43.224;27.910;2022-11-20T08:00:24;100070.47;;;20.76;100.00
11523;BME280;40093;43.224;27.910;2022-11-20T08:02:52;100085.31;;;20.85;100.00
11523;BME280;40093;43.224;27.910;2022-11-20T08:05:20;100092.56;;;20.83;100.00
11523;BME280;40093;43.224;27.910;2022-11-20T08:07:47;100086.94;;;20.95;100.00
11523;BME280;40093;43.224;27.910;2022-11-20T08:10:15;100096.63;;;21.03;100.00
11523;BME280;40093;43.224;27.910;2022-11-20T08:12:46;100084.28;;;21.22;100.00
11523;BME280;40093;43.224;27.910;2022-11-20T08:15:31;100086.84;;;21.29;100.00
11523;BME280;40093;43.224;27.910;2022-11-20T08:18:02;100098.53;;;21.37;100.00
11523;BME280;40093;43.224;27.910;2022-11-20T08:20:31;100095.28;;;21.38;100.00
11523;BME280;40093;43.224;27.910;2022-11-20T08:22:59;100096.47;;;21.28;100.00
11523;BME280;40093;43.224;27.910;2022-11-20T08:25:27;100084.78;;;21.21;100.00
11523;BME280;40093;43.224;27.910;2022-11-20T08:27:57;100076.66;;;20.92;100.00
11523;BME280;40093;43.224;27.910;2022-11-20T08:30:24;100051.31;;;20.74;100.00
11523;BME280;40093;43.224;27.910;2022-11-20T08:32:51;100093.88;;;20.91;100.00
11523;BME280;40093;43.224;27.910;2022-11-20T08:35:18;100083.47;;;20.91;100.00
11523;BME280;40093;43.224;27.910;2022-11-20T08:37:48;100087.38;;;20.94;100.00
11523;BME280;40093;43.224;27.910;2022-11-20T08:40:15;100081.03;;;20.93;100.00
11523;BME280;40093;43.224;27.910;2022-11-20T08:42:49;100083.34;;;20.95;100.00
11523;BME280;40093;43.224;27.910;2022-11-20T08:45:16;100072.09;;;20.86;100.00
11523;BME280;40093;43.224;27.910;2022-11-20T08:47:44;100069.03;;;20.93;100.00
11523;BME280;40093;43.224;27.910;2022-11-20T08:50:12;100058.91;;;20.86;100.00
11523;BME280;40093;43.224;27.910;2022-11-20T08:52:40;100061.75;;;20.95;100.00
11523;BME280;40093;43.224;27.910;2022-11-20T08:55:10;100066.69;;;20.91;100.00
11523;BME280;40093;43.224;27.910;2022-11-20T08:57:37;100070.41;;;20.88;100.00
11523;BME280;40093;43.224;27.910;2022-11-20T09:00:06;100071.06;;;20.92;100.00
11523;BME280;40093;43.224;27.910;2022-11-20T09:02:34;100065.72;;;20.85;100.00
11523;BME280;40093;43.224;27.910;2022-11-20T09:05:01;100069.47;;;20.91;100.00
11523;BME280;40093;43.224;27.910;2022-11-20T09:07:29;100055.69;;;20.75;100.00
11523;BME280;40093;43.224;27.910;2022-11-20T09:09:56;100070.56;;;20.72;100.00
11523;BME280;40093;43.224;27.910;2022-11-20T09:12:24;100057.84;;;20.71;100.00
11523;BME280;40093;43.224;27.910;2022-11-20T09:14:51;100037.78;;;20.73;100.00
11523;BME280;40093;43.224;27.910;2022-11-20T09:17:18;100049.97;;;20.79;100.00
11523;BME280;40093;43.224;27.910;2022-11-20T09:19:46;100050.94;;;20.85;100.00
11523;BME280;40093;43.224;27.910;2022-11-20T09:22:14;100049.47;;;20.80;100.00
11523;BME280;40093;43.224;27.910;2022-11-20T09:24:41;100050.09;;;20.75;100.00
11523;BME280;40093;43.224;27.910;2022-11-20T09:27:08;100047.16;;;20.79;100.00
11523;BME280;40093;43.224;27.910;2022-11-20T09:29:36;100059.53;;;20.90;100.00
11523;BME280;40093;43.224;27.910;2022-11-20T09:32:04;100046.69;;;20.80;100.00
11523;BME280;40093;43.224;27.910;2022-11-20T09:34:31;100052.84;;;20.88;100.00
11523;BME280;40093;43.224;27.910;2022-11-20T09:36:58;100045.59;;;20.78;100.00
11523;BME280;40093;43.224;27.910;2022-11-20T09:39:25;100028.69;;;20.81;100.00
11523;BME280;40093;43.224;27.910;2022-11-20T09:42:11;100039.38;;;20.95;100.00
11523;BME280;40093;43.224;27.910;2022-11-20T09:44:57;100040.00;;;20.99;100.00
11523;BME280;40093;43.224;27.910;2022-11-20T09:47:37;100030.06;;;20.98;100.00
11523;BME280;40093;43.224;27.910;2022-11-20T09:50:23;100022.84;;;20.88;100.00
11523;BME280;40093;43.224;27.910;2022-11-20T09:53:01;100017.63;;;20.99;100.00
11523;BME280;40093;43.224;27.910;2022-11-20T09:55:31;100018.81;;;20.89;100.00
11523;BME280;40093;43.224;27.910;2022-11-20T09:57:59;100017.00;;;20.95;100.00
11523;BME280;40093;43.224;27.910;2022-11-20T10:00:28;100019.84;;;21.04;100.00
11523;BME280;40093;43.224;27.910;2022-11-20T10:03:00;100012.16;;;21.17;100.00
11523;BME280;40093;43.224;27.910;2022-11-20T10:05:31;100014.50;;;21.19;100.00
11523;BME280;40093;43.224;27.910;2022-11-20T10:08:08;100019.25;;;21.09;100.00
11523;BME280;40093;43.224;27.910;2022-11-20T10:10:42;100014.13;;;21.08;100.00
11523;BME280;40093;43.224;27.910;2022-11-20T10:13:29;99999.53;;;21.13;100.00
11523;BME280;40093;43.224;27.910;2022-11-20T10:16:13;100003.56;;;21.12;100.00
11523;BME280;40093;43.224;27.910;2022-11-20T10:18:54;99976.34;;;21.12;100.00
11523;BME280;40093;43.224;27.910;2022-11-20T10:21:27;99991.00;;;21.16;100.00
11523;BME280;40093;43.224;27.910;2022-11-20T10:24:23;99978.44;;;21.21;100.00
11523;BME280;40093;43.224;27.910;2022-11-20T10:26:57;99977.88;;;21.04;100.00
11523;BME280;40093;43.224;27.910;2022-11-20T10:29:32;99969.03;;;21.06;100.00
11523;BME280;40093;43.224;27.910;2022-11-20T10:32:03;99975.09;;;21.04;100.00
11523;BME280;40093;43.224;27.910;2022-11-20T10:34:35;99969.50;;;21.04;100.00
11523;BME280;40093;43.224;27.910;2022-11-20T10:37:11;99976.88;;;21.20;100.00
11523;BME280;40093;43.224;27.910;2022-11-20T10:39:42;99975.59;;;21.12;100.00
11523;BME280;40093;43.224;27.910;2022-11-20T10:42:17;99969.28;;;21.29;100.00
11523;BME280;40093;43.224;27.910;2022-11-20T10:44:52;99969.31;;;21.38;100.00
11523;BME280;40093;43.224;27.910;2022-11-20T10:47:30;99960.72;;;21.24;100.00
11523;BME280;40093;43.224;27.910;2022-11-20T10:50:01;99963.72;;;21.38;100.00
11523;BME280;40093;43.224;27.910;2022-11-20T10:52:34;99964.66;;;21.35;100.00
11523;BME280;40093;43.224;27.910;2022-11-20T10:55:10;99974.56;;;21.27;100.00
11523;BME280;40093;43.224;27.910;2022-11-20T10:57:50;99956.88;;;21.39;100.00
11523;BME280;40093;43.224;27.910;2022-11-20T11:00:19;99971.13;;;21.23;100.00
11523;BME280;40093;43.224;27.910;2022-11-20T11:02:48;99967.72;;;21.28;100.00
11523;BME280;40093;43.224;27.910;2022-11-20T11:05:24;99964.66;;;21.35;100.00
11523;BME280;40093;43.224;27.910;2022-11-20T11:07:54;99971.84;;;21.45;100.00
11523;BME280;40093;43.224;27.910;2022-11-20T11:10:24;99970.59;;;21.46;100.00
11523;BME280;40093;43.224;27.910;2022-11-20T11:12:52;99955.00;;;21.36;100.00
11523;BME280;40093;43.224;27.910;2022-11-20T11:15:28;99955.31;;;21.38;100.00
11523;BME280;40093;43.224;27.910;2022-11-20T11:17:56;99955.91;;;21.33;100.00
11523;BME280;40093;43.224;27.910;2022-11-20T11:20:25;99970.38;;;21.32;100.00
11523;BME280;40093;43.224;27.910;2022-11-20T11:22:54;99969.31;;;21.38;100.00
11523;BME280;40093;43.224;27.910;2022-11-20T11:25:28;99977.41;;;21.36;100.00
11523;BME280;40093;43.224;27.910;2022-11-20T11:27:57;99970.91;;;21.48;100.00
11523;BME280;40093;43.224;27.910;2022-11-20T11:30:26;99971.66;;;21.49;100.00
11523;BME280;40093;43.224;27.910;2022-11-20T11:33:11;99983.44;;;21.35;100.00
11523;BME280;40093;43.224;27.910;2022-11-20T11:35:44;99980.81;;;21.40;100.00
11523;BME280;40093;43.224;27.910;2022-11-20T11:38:15;99975.41;;;21.46;100.00
11523;BME280;40093;43.224;27.910;2022-11-20T11:40:43;99985.00;;;21.36;100.00
11523;BME280;40093;43.224;27.910;2022-11-20T11:43:18;99989.50;;;21.33;100.00
11523;BME280;40093;43.224;27.910;2022-11-20T11:46:30;99990.34;;;21.43;100.00
11523;BME280;40093;43.224;27.910;2022-11-20T11:49:01;100002.94;;;21.47;100.00
11523;BME280;40093;43.224;27.910;2022-11-20T11:51:35;99999.66;;;21.49;100.00
11523;BME280;40093;43.224;27.910;2022-11-20T11:54:12;100000.16;;;21.47;100.00
11523;BME280;40093;43.224;27.910;2022-11-20T11:56:41;99996.41;;;21.50;100.00
11523;BME280;40093;43.224;27.910;2022-11-20T11:59:12;100007.31;;;21.48;100.00
11523;BME280;40093;43.224;27.910;2022-11-20T12:01:45;100008.47;;;21.29;100.00
11523;BME280;40093;43.224;27.910;2022-11-20T12:04:21;100016.53;;;21.27;100.00
11523;BME280;40093;43.224;27.910;2022-11-20T12:06:55;100010.94;;;21.27;100.00
11523;BME280;40093;43.224;27.910;2022-11-20T12:09:31;100000.31;;;21.13;100.00
11523;BME280;40093;43.224;27.910;2022-11-20T12:12:06;100008.41;;;21.20;100.00
11523;BME280;40093;43.224;27.910;2022-11-20T12:14:37;100005.00;;;21.16;100.00
11523;BME280;40093;43.224;27.910;2022-11-20T12:17:09;99995.34;;;21.17;100.00
11523;BME280;40093;43.224;27.910;2022-11-20T12:19:39;100008.91;;;21.19;100.00
11523;BME280;40093;43.224;27.910;2022-11-20T12:22:17;99993.69;;;20.98;100.00
11523;BME280;40093;43.224;27.910;2022-11-20T12:24:55;99998.56;;;21.07;100.00
11523;BME280;40093;43.224;27.910;2022-11-20T12:27:43;99986.00;;;21.11;100.00
11523;BME280;40093;43.224;27.910;2022-11-20T12:30:18;99986.78;;;21.12;100.00
11523;BME280;40093;43.224;27.910;2022-11-20T12:33:00;99980.56;;;21.17;100.00
11523;BME280;40093;43.224;27.910;2022-11-20T12:36:10;99982.59;;;21.16;100.00
11523;BME280;40093;43.224;27.910;2022-11-20T12:39:08;99987.72;;;21.18;100.00
11523;BME280;40093;43.224;27.910;2022-11-20T12:41:49;99977.31;;;21.18;100.00
11523;BME280;40093;43.224;27.910;2022-11-20T12:45:00;99984.16;;;21.17;100.00
11523;BME280;40093;43.224;27.910;2022-11-20T12:47:50;99971.69;;;21.09;100.00
11523;BME280;40093;43.224;27.910;2022-11-20T12:50:30;99983.13;;;21.02;100.00
11523;BME280;40093;43.224;27.910;2022-11-20T12:53:07;99980.69;;;21.04;100.00
11523;BME280;40093;43.224;27.910;2022-11-20T12:55:46;99980.25;;;21.15;100.00
11523;BME280;40093;43.224;27.910;2022-11-20T12:58:22;99989.97;;;21.01;100.00
11523;BME280;40093;43.224;27.910;2022-11-20T13:00:59;99992.94;;;20.98;100.00
11523;BME280;40093;43.224;27.910;2022-11-20T13:03:37;99995.38;;;20.96;100.00
11523;BME280;40093;43.224;27.910;2022-11-20T13:06:13;99996.19;;;20.96;100.00